Time;durP1;ratioP1;P1;durP2;ratioP2;P2;SDS_P1;SDS_P2;PMS_P1;PMS_P2;Temp;Humidity;BMP_temperature;BMP_pressure;BME280_temperature;BME280_humidity;BME280_pressure;Samples;Min_cycle;Max_cycle;Signal;HPM_P1;HPM_P2
2021/12/26 00:01:52;;;;;;;4.55;1.70;;;-4.90;99.90;;;;;;6184585;23;20125;-80
2021/12/26 00:04:18;;;;;;;6.30;1.88;;;-5.00;99.90;;;;;;6158133;23;20027;-79
2021/12/26 00:06:48;;;;;;;3.88;1.80;;;-4.90;99.90;;;;;;6184973;23;20029;-79
2021/12/26 00:09:18;;;;;;;7.15;2.15;;;-4.90;99.90;;;;;;6133289;23;20479;-79
2021/12/26 00:11:44;;;;;;;8.30;2.92;;;-4.90;99.90;;;;;;6162132;23;20021;-79
2021/12/26 00:14:09;;;;;;;5.28;2.40;;;-4.90;99.90;;;;;;6187836;23;20025;-79
2021/12/26 00:16:35;;;;;;;3.65;1.70;;;-5.00;99.90;;;;;;6158149;23;20468;-79
2021/12/26 00:19:01;;;;;;;10.00;3.78;;;-4.90;99.90;;;;;;6158099;23;20175;-78
2021/12/26 00:21:34;;;;;;;5.75;2.30;;;-5.00;99.90;;;;;;6157436;23;20048;-79
2021/12/26 00:24:04;;;;;;;6.57;2.55;;;-5.00;99.90;;;;;;6156994;23;20025;-80
2021/12/26 00:26:32;;;;;;;36.25;11.70;;;-5.00;99.90;;;;;;6133363;23;20103;-80
2021/12/26 00:28:59;;;;;;;36.17;12.88;;;-5.00;99.90;;;;;;6157500;23;20025;-80
2021/12/26 00:31:25;;;;;;;36.20;13.77;;;-5.00;99.90;;;;;;6184499;23;20029;-80
2021/12/26 00:33:51;;;;;;;6.43;2.13;;;-5.00;99.90;;;;;;6158002;23;20027;-80
2021/12/26 00:36:17;;;;;;;7.03;2.58;;;-5.00;99.90;;;;;;6157308;23;20468;-80
2021/12/26 00:38:43;;;;;;;5.25;1.77;;;-5.00;99.90;;;;;;6156744;23;20017;-80
2021/12/26 00:41:10;;;;;;;4.43;1.48;;;-5.00;99.90;;;;;;6157528;23;20357;-80
2021/12/26 00:43:36;;;;;;;4.85;1.77;;;-5.00;99.90;;;;;;6157628;23;20021;-79
2021/12/26 00:46:02;;;;;;;5.38;1.60;;;-5.00;99.90;;;;;;6132899;23;20111;-80
2021/12/26 00:48:29;;;;;;;7.97;2.05;;;-5.00;99.90;;;;;;6130532;23;20052;-79
2021/12/26 00:50:55;;;;;;;4.90;1.77;;;-4.90;99.90;;;;;;6131394;23;20046;-80
2021/12/26 00:53:22;;;;;;;3.80;1.40;;;-4.90;99.90;;;;;;6156186;23;20541;-79
2021/12/26 00:55:48;;;;;;;4.45;1.50;;;-5.00;99.90;;;;;;6156254;23;20076;-80
2021/12/26 00:58:14;;;;;;;4.28;1.38;;;-4.90;99.90;;;;;;6155440;23;20397;-80
2021/12/26 01:00:43;;;;;;;5.20;1.45;;;-4.90;99.90;;;;;;6155684;23;20021;-80
2021/12/26 01:03:10;;;;;;;2.75;1.33;;;-4.90;99.90;;;;;;6155446;23;20033;-79
2021/12/26 01:05:39;;;;;;;6.10;1.85;;;-4.90;99.90;;;;;;6156021;23;20025;-80
2021/12/26 01:08:08;;;;;;;5.43;1.33;;;-5.00;99.90;;;;;;6156362;23;20025;-80
2021/12/26 01:10:53;;;;;;;2.72;1.20;;;-4.90;99.90;;;;;;6156316;23;20453;-80
2021/12/26 01:16:11;;;;;;;4.32;1.42;;;-5.00;99.90;;;;;;6180012;23;20021;-79
2021/12/26 01:18:45;;;;;;;4.03;1.27;;;-5.00;99.90;;;;;;6156436;23;20029;-79
2021/12/26 01:21:19;;;;;;;2.92;1.30;;;-5.10;99.90;;;;;;6184158;23;20029;-79
2021/12/26 01:23:54;;;;;;;5.88;1.48;;;-5.10;99.90;;;;;;6157564;23;20027;-80
2021/12/26 01:26:21;;;;;;;5.53;1.73;;;-5.10;99.90;;;;;;6163174;23;20025;-78
2021/12/26 01:28:47;;;;;;;4.43;1.50;;;-5.10;99.90;;;;;;6161856;23;20027;-79
2021/12/26 01:31:19;;;;;;;4.50;1.42;;;-5.20;99.90;;;;;;6157389;23;20021;-79
2021/12/26 01:33:49;;;;;;;4.53;1.40;;;-5.20;99.90;;;;;;6182638;23;20025;-79
2021/12/26 01:36:22;;;;;;;4.95;1.55;;;-5.20;99.90;;;;;;6157066;23;20048;-78
2021/12/26 01:38:53;;;;;;;4.15;1.40;;;-5.20;99.90;;;;;;6132709;23;20028;-79
2021/12/26 01:41:19;;;;;;;6.45;2.17;;;-5.30;99.90;;;;;;6131329;23;20060;-79
2021/12/26 01:43:56;;;;;;;4.35;1.58;;;-5.30;99.90;;;;;;6132630;23;20078;-79
2021/12/26 01:46:25;;;;;;;5.85;1.20;;;-5.30;99.90;;;;;;6132684;23;20025;-79
2021/12/26 01:49:07;;;;;;;4.32;1.27;;;-5.30;99.90;;;;;;6157281;23;20029;-79
2021/12/26 01:51:36;;;;;;;5.47;1.40;;;-5.30;99.90;;;;;;6157477;23;20029;-79
2021/12/26 01:54:06;;;;;;;5.38;1.52;;;-5.30;99.90;;;;;;6132378;23;20032;-79
2021/12/26 01:56:33;;;;;;;5.63;1.55;;;-5.30;99.90;;;;;;6184080;23;20479;-79
2021/12/26 01:59:00;;;;;;;3.33;1.42;;;-5.30;99.90;;;;;;6156781;23;20056;-79
2021/12/26 02:01:26;;;;;;;4.35;1.50;;;-5.30;99.90;;;;;;6132176;23;20113;-79
2021/12/26 02:04:00;;;;;;;6.30;1.45;;;-5.30;99.90;;;;;;6157188;23;20025;-80
2021/12/26 02:06:35;;;;;;;4.90;1.38;;;-5.40;99.90;;;;;;6134476;23;20021;-79
2021/12/26 02:09:02;;;;;;;4.35;1.50;;;-5.40;99.90;;;;;;6181202;23;20033;-77
2021/12/26 02:11:39;;;;;;;5.60;2.13;;;-5.30;99.90;;;;;;6163255;23;20029;-78
2021/12/26 02:14:06;;;;;;;9.07;1.75;;;-5.40;99.90;;;;;;6156578;23;20068;-79
2021/12/26 02:16:32;;;;;;;3.88;1.63;;;-5.40;99.90;;;;;;6182387;23;20067;-79
2021/12/26 02:18:58;;;;;;;5.38;1.80;;;-5.30;99.90;;;;;;6157048;23;20095;-79
2021/12/26 02:29:26;;;;;;;4.95;1.55;;;-5.30;99.90;;;;;;6157102;23;20023;-79
2021/12/26 02:32:04;;;;;;;4.07;1.48;;;-5.30;99.90;;;;;;6185233;23;20025;-79
2021/12/26 02:34:30;;;;;;;3.75;1.40;;;-5.30;99.90;;;;;;6159110;23;20059;-79
2021/12/26 02:36:56;;;;;;;2.83;1.10;;;-5.30;99.90;;;;;;6158781;23;20518;-79
2021/12/26 02:39:24;;;;;;;3.45;1.52;;;-5.30;99.90;;;;;;6134311;23;20426;-80
2021/12/26 02:41:50;;;;;;;4.10;1.55;;;-5.30;99.90;;;;;;6185278;23;20033;-80
2021/12/26 02:44:15;;;;;;;4.05;1.42;;;-5.30;99.90;;;;;;6158366;23;20055;-79
2021/12/26 02:46:41;;;;;;;4.25;1.52;;;-5.40;99.90;;;;;;6185342;23;20029;-78
2021/12/26 02:49:14;;;;;;;3.20;1.52;;;-5.40;99.90;;;;;;6135492;23;20484;-79
2021/12/26 02:51:40;;;;;;;3.83;1.65;;;-5.40;99.90;;;;;;6139621;23;20021;-79
2021/12/26 02:54:06;;;;;;;4.03;1.40;;;-5.40;99.90;;;;;;6158647;23;20511;-79
2021/12/26 02:56:40;;;;;;;5.38;1.67;;;-5.40;99.90;;;;;;6157563;23;20025;-79
2021/12/26 02:59:06;;;;;;;3.85;1.30;;;-5.40;99.90;;;;;;6133386;23;20037;-79
2021/12/26 03:01:32;;;;;;;4.60;1.67;;;-5.40;99.90;;;;;;6158170;23;20029;-79
2021/12/26 03:03:59;;;;;;;6.22;1.67;;;-5.50;99.90;;;;;;6185323;23;20028;-80
2021/12/26 03:06:33;;;;;;;3.47;1.63;;;-5.50;99.90;;;;;;6133823;23;20029;-80
2021/12/26 03:09:00;;;;;;;5.20;1.50;;;-5.50;99.90;;;;;;6157593;23;20064;-79
2021/12/26 03:11:26;;;;;;;4.95;1.45;;;-5.50;99.90;;;;;;6157646;23;20836;-78
2021/12/26 03:13:55;;;;;;;3.22;1.52;;;-5.50;99.90;;;;;;6134543;23;20021;-80
2021/12/26 03:16:21;;;;;;;3.30;1.33;;;-5.60;99.90;;;;;;6179356;23;20056;-79
2021/12/26 03:18:46;;;;;;;4.10;1.45;;;-5.60;99.90;;;;;;6158436;23;20096;-79
2021/12/26 03:21:14;;;;;;;3.65;1.48;;;-5.60;99.90;;;;;;6157510;23;20362;-79
2021/12/26 03:23:44;;;;;;;4.68;1.50;;;-5.60;99.90;;;;;;6158216;23;20412;-80
2021/12/26 03:26:10;;;;;;;3.95;1.60;;;-5.60;99.90;;;;;;6158453;23;20052;-80
2021/12/26 03:28:36;;;;;;;4.30;1.23;;;-5.60;99.90;;;;;;6134289;23;20079;-79
2021/12/26 03:31:02;;;;;;;6.03;1.75;;;-5.60;99.90;;;;;;6136621;23;20436;-79
2021/12/26 03:33:36;;;;;;;6.03;1.67;;;-5.70;99.90;;;;;;6162212;23;20021;-79
2021/12/26 03:36:02;;;;;;;4.40;1.35;;;-5.70;99.90;;;;;;6161055;23;20086;-80
2021/12/26 03:38:29;;;;;;;4.63;1.50;;;-5.70;99.90;;;;;;6133886;23;20523;-79
2021/12/26 03:40:55;;;;;;;4.90;1.23;;;-5.70;99.90;;;;;;6158050;23;20025;-79
2021/12/26 03:43:26;;;;;;;4.40;1.73;;;-5.80;99.90;;;;;;6133213;23;20461;-79
2021/12/26 03:45:57;;;;;;;7.35;1.75;;;-5.80;99.90;;;;;;6133354;23;20117;-79
2021/12/26 03:48:25;;;;;;;4.70;1.30;;;-5.80;99.90;;;;;;6158307;23;20021;-79
2021/12/26 03:50:51;;;;;;;4.43;1.30;;;-5.80;99.90;;;;;;6157994;23;20111;-79
2021/12/26 03:53:18;;;;;;;3.78;1.30;;;-5.80;99.90;;;;;;6183086;23;20096;-78
2021/12/26 03:55:45;;;;;;;3.25;1.60;;;-5.80;99.90;;;;;;6158092;23;20021;-79
2021/12/26 03:58:14;;;;;;;3.42;1.40;;;-5.80;99.90;;;;;;6157793;23;20024;-79
2021/12/26 04:00:50;;;;;;;5.10;1.70;;;-5.60;99.90;;;;;;6157953;23;20025;-79
2021/12/26 04:03:22;;;;;;;4.00;1.35;;;-5.90;99.90;;;;;;6184391;23;20025;-79
2021/12/26 04:05:48;;;;;;;5.07;1.55;;;-5.80;99.90;;;;;;6133486;23;20357;-79
2021/12/26 04:08:14;;;;;;;6.63;1.33;;;-5.80;99.90;;;;;;6184978;23;20064;-79
2021/12/26 04:10:40;;;;;;;3.63;1.30;;;-5.80;99.90;;;;;;6184555;23;20025;-78
2021/12/26 04:13:07;;;;;;;3.05;1.27;;;-5.90;99.90;;;;;;6158905;23;20028;-78
2021/12/26 04:15:34;;;;;;;3.90;1.63;;;-5.80;99.90;;;;;;6159902;23;20017;-79
2021/12/26 04:18:04;;;;;;;4.03;1.33;;;-5.80;99.90;;;;;;6184428;23;20028;-79
2021/12/26 04:20:29;;;;;;;8.80;2.78;;;-5.80;99.90;;;;;;6184658;23;20021;-78
2021/12/26 04:22:56;;;;;;;3.58;1.45;;;-5.80;99.90;;;;;;6157184;23;20352;-79
2021/12/26 04:25:22;;;;;;;4.88;1.52;;;-5.80;99.90;;;;;;6157859;23;20392;-79
2021/12/26 04:27:49;;;;;;;8.85;2.17;;;-5.80;99.90;;;;;;6132587;23;20029;-80
2021/12/26 04:30:16;;;;;;;5.13;1.50;;;-5.80;99.90;;;;;;6157699;23;20029;-79
2021/12/26 04:32:42;;;;;;;6.32;1.90;;;-5.80;99.90;;;;;;6156863;23;20021;-79
2021/12/26 04:35:09;;;;;;;3.00;1.10;;;-5.80;99.90;;;;;;6157824;23;20071;-79
2021/12/26 04:37:35;;;;;;;3.95;1.35;;;-5.80;99.90;;;;;;6157801;23;20025;-79
2021/12/26 04:40:07;;;;;;;5.43;1.35;;;-5.70;99.90;;;;;;6157527;23;20172;-79
2021/12/26 04:42:33;;;;;;;4.72;1.52;;;-5.70;99.90;;;;;;6157562;23;20028;-79
2021/12/26 04:45:07;;;;;;;4.15;1.35;;;-5.50;99.90;;;;;;6157127;23;20025;-78
2021/12/26 04:47:33;;;;;;;4.25;1.30;;;-5.50;99.90;;;;;;6131766;23;20056;-78
2021/12/26 04:50:00;;;;;;;3.72;1.20;;;-5.50;99.90;;;;;;6157344;23;20025;-78
2021/12/26 04:52:26;;;;;;;4.28;1.13;;;-5.40;99.90;;;;;;6136201;23;20032;-78
2021/12/26 04:54:53;;;;;;;2.53;0.98;;;-5.30;99.90;;;;;;6132628;23;20025;-78
2021/12/26 04:57:19;;;;;;;9.77;2.13;;;-5.30;99.90;;;;;;6184233;23;20465;-79
2021/12/26 04:59:45;;;;;;;4.50;1.30;;;-5.30;99.90;;;;;;6132749;23;20389;-79
2021/12/26 05:02:16;;;;;;;3.45;1.23;;;-5.20;99.90;;;;;;6133163;23;20029;-79
2021/12/26 05:04:42;;;;;;;2.20;1.00;;;-5.20;99.90;;;;;;6157707;23;20028;-79
2021/12/26 05:07:08;;;;;;;3.13;1.20;;;-5.10;99.90;;;;;;6157549;23;20025;-78
2021/12/26 05:09:36;;;;;;;2.80;1.00;;;-5.10;99.90;;;;;;6132242;23;20013;-79
2021/12/26 05:12:02;;;;;;;3.22;1.35;;;-5.10;99.90;;;;;;6132936;23;20029;-79
2021/12/26 05:14:27;;;;;;;5.25;1.00;;;-5.10;99.90;;;;;;6157000;23;20079;-79
2021/12/26 05:16:53;;;;;;;5.55;2.42;;;-5.00;99.90;;;;;;6156819;23;20457;-79
2021/12/26 05:19:19;;;;;;;5.40;1.30;;;-5.00;99.90;;;;;;6132124;23;20035;-78
2021/12/26 05:21:45;;;;;;;5.13;1.20;;;-5.00;99.90;;;;;;6157270;23;20028;-78
2021/12/26 05:24:11;;;;;;;4.20;1.55;;;-5.00;99.90;;;;;;6132810;23;20096;-78
2021/12/26 05:26:37;;;;;;;3.05;1.10;;;-4.90;99.60;;;;;;6132829;23;20056;-79
2021/12/26 05:29:02;;;;;;;4.22;1.85;;;-4.90;99.50;;;;;;6183823;23;20095;-79
2021/12/26 05:31:36;;;;;;;3.28;1.10;;;-4.90;99.30;;;;;;6132952;23;20025;-79
2021/12/26 05:34:02;;;;;;;3.42;1.40;;;-4.90;99.50;;;;;;6132469;23;20101;-79
2021/12/26 05:36:28;;;;;;;4.38;1.52;;;-4.90;99.50;;;;;;6184802;23;20099;-78
2021/12/26 05:38:55;;;;;;;2.92;1.10;;;-4.90;99.10;;;;;;6157407;23;20052;-79
2021/12/26 05:41:21;;;;;;;2.92;1.17;;;-4.90;99.20;;;;;;6186706;23;20025;-78
2021/12/26 05:43:47;;;;;;;3.50;1.10;;;-4.90;98.70;;;;;;6184441;23;20349;-79
2021/12/26 05:46:21;;;;;;;7.03;1.45;;;-4.80;98.70;;;;;;6131574;23;20437;-79
2021/12/26 05:48:46;;;;;;;2.58;1.02;;;-4.90;98.80;;;;;;6132613;23;20025;-79
2021/12/26 05:51:20;;;;;;;5.70;1.52;;;-4.90;98.70;;;;;;6157204;23;20059;-78
2021/12/26 05:53:47;;;;;;;4.10;1.48;;;-4.90;99.10;;;;;;6183450;23;20499;-78
2021/12/26 05:56:13;;;;;;;3.80;1.35;;;-4.90;98.90;;;;;;6157269;23;20021;-79
2021/12/26 05:58:39;;;;;;;3.78;1.58;;;-4.90;99.00;;;;;;6156796;23;20404;-78
2021/12/26 06:01:05;;;;;;;5.93;2.67;;;-4.90;99.40;;;;;;6157034;23;20024;-79
2021/12/26 06:03:32;;;;;;;4.53;1.38;;;-4.90;99.20;;;;;;6156727;23;20021;-78
2021/12/26 06:05:59;;;;;;;5.07;1.67;;;-5.00;99.50;;;;;;6157502;23;20029;-78
2021/12/26 06:08:25;;;;;;;8.00;1.77;;;-5.00;99.60;;;;;;6158718;23;20028;-78
2021/12/26 06:10:50;;;;;;;3.63;1.55;;;-5.00;99.50;;;;;;6158170;23;20400;-79
2021/12/26 06:13:16;;;;;;;4.55;1.70;;;-5.00;99.20;;;;;;6186009;23;20386;-79
2021/12/26 06:15:42;;;;;;;6.07;1.75;;;-5.00;99.60;;;;;;6133803;23;20087;-78
2021/12/26 06:18:08;;;;;;;3.63;1.20;;;-5.00;99.40;;;;;;6136220;23;20107;-79
2021/12/26 06:20:34;;;;;;;4.05;1.55;;;-5.00;99.40;;;;;;6161063;23;20025;-79
2021/12/26 06:23:02;;;;;;;5.80;1.80;;;-5.00;99.60;;;;;;6158642;23;20024;-79
2021/12/26 06:25:29;;;;;;;5.50;1.60;;;-5.00;99.70;;;;;;6134685;23;20426;-79
2021/12/26 06:27:55;;;;;;;4.63;1.45;;;-5.00;99.80;;;;;;6158842;23;20025;-79
2021/12/26 06:30:22;;;;;;;6.35;1.48;;;-5.00;99.90;;;;;;6134674;23;20060;-79
2021/12/26 06:32:48;;;;;;;3.13;1.52;;;-5.00;99.90;;;;;;6158744;23;20354;-78
2021/12/26 06:35:14;;;;;;;4.75;2.00;;;-5.10;99.90;;;;;;6155618;23;20025;-78
2021/12/26 06:37:41;;;;;;;5.45;1.73;;;-5.10;99.90;;;;;;6158306;23;20021;-79
2021/12/26 06:40:11;;;;;;;4.43;2.05;;;-5.10;99.90;;;;;;6133493;23;20469;-78
2021/12/26 06:42:48;;;;;;;3.80;1.70;;;-5.10;99.90;;;;;;6157647;23;20025;-78
2021/12/26 06:45:17;;;;;;;4.35;1.52;;;-5.20;99.90;;;;;;6158838;23;20029;-79
2021/12/26 06:47:49;;;;;;;3.50;1.58;;;-5.20;99.90;;;;;;6184163;23;20021;-79
2021/12/26 06:50:21;;;;;;;6.15;2.67;;;-5.20;99.90;;;;;;6133539;23;20090;-78
2021/12/26 06:52:48;;;;;;;4.88;1.92;;;-5.20;99.90;;;;;;6134155;23;20099;-79
2021/12/26 06:55:21;;;;;;;4.72;1.70;;;-5.30;99.90;;;;;;6158592;23;20423;-79
2021/12/26 06:57:47;;;;;;;5.05;1.70;;;-5.30;99.90;;;;;;6160539;23;20061;-79
2021/12/26 07:00:16;;;;;;;5.68;1.80;;;-5.30;99.90;;;;;;6135403;23;20052;-79
2021/12/26 07:02:43;;;;;;;7.28;2.10;;;-5.30;99.90;;;;;;6133438;23;20056;-79
2021/12/26 07:05:14;;;;;;;5.70;1.83;;;-5.30;99.90;;;;;;6158816;23;20534;-78
2021/12/26 07:07:41;;;;;;;4.63;1.77;;;-5.30;99.90;;;;;;6158272;23;20500;-78
2021/12/26 07:10:11;;;;;;;4.15;1.90;;;-5.30;99.90;;;;;;6184348;23;20025;-78
2021/12/26 07:12:44;;;;;;;4.03;1.55;;;-5.20;99.90;;;;;;6158540;23;20056;-79
2021/12/26 07:15:11;;;;;;;3.67;1.60;;;-5.10;99.90;;;;;;6158371;23;20083;-78
2021/12/26 07:17:39;;;;;;;2.72;1.20;;;-5.10;99.90;;;;;;6132581;23;20060;-78
2021/12/26 07:20:06;;;;;;;3.90;1.38;;;-5.10;99.90;;;;;;6158008;23;20056;-79
2021/12/26 07:22:32;;;;;;;4.72;1.60;;;-5.10;99.90;;;;;;6158085;23;20021;-78
2021/12/26 07:24:58;;;;;;;6.78;2.08;;;-5.00;99.70;;;;;;6133605;23;20028;-79
2021/12/26 07:27:27;;;;;;;6.05;1.75;;;-5.00;99.90;;;;;;6134472;23;20025;-79
2021/12/26 07:29:53;;;;;;;5.68;2.20;;;-5.00;99.60;;;;;;6133615;23;20079;-79
2021/12/26 07:32:20;;;;;;;5.38;1.70;;;-5.00;99.50;;;;;;6158875;23;20088;-80
2021/12/26 07:34:46;;;;;;;5.20;2.30;;;-5.00;99.60;;;;;;6159830;23;20420;-79
2021/12/26 07:37:12;;;;;;;4.15;1.90;;;-5.00;99.10;;;;;;6161853;23;20468;-78
2021/12/26 07:39:37;;;;;;;3.75;1.70;;;-4.90;99.30;;;;;;6163807;23;20021;-77
2021/12/26 07:42:04;;;;;;;3.35;1.35;;;-4.90;98.90;;;;;;6158199;23;20025;-79
2021/12/26 07:44:30;;;;;;;4.03;1.40;;;-4.90;99.20;;;;;;6157993;23;20460;-78
2021/12/26 07:46:56;;;;;;;3.80;1.67;;;-4.90;99.20;;;;;;6158710;23;20071;-79
2021/12/26 07:49:23;;;;;;;4.40;1.67;;;-4.90;99.10;;;;;;6158269;23;20027;-79
2021/12/26 07:51:49;;;;;;;6.30;1.30;;;-4.90;99.20;;;;;;6157901;23;20460;-79
2021/12/26 07:54:16;;;;;;;5.57;1.90;;;-4.90;98.70;;;;;;6133214;23;20021;-80
2021/12/26 07:56:43;;;;;;;4.40;1.48;;;-4.80;98.10;;;;;;6157786;23;20025;-77
2021/12/26 07:59:09;;;;;;;4.50;1.52;;;-4.80;97.70;;;;;;6132677;23;20023;-79
2021/12/26 08:01:35;;;;;;;5.13;2.13;;;-4.70;97.80;;;;;;6157930;23;20087;-78
2021/12/26 08:04:11;;;;;;;6.93;1.95;;;-4.70;97.10;;;;;;6157266;23;20017;-78
2021/12/26 08:06:38;;;;;;;5.72;1.83;;;-4.70;97.50;;;;;;6157773;23;20043;-78
2021/12/26 08:09:05;;;;;;;3.65;1.42;;;-4.70;97.20;;;;;;6132727;23;20093;-78
2021/12/26 08:11:31;;;;;;;4.03;1.80;;;-4.60;97.10;;;;;;6158571;23;20032;-78
2021/12/26 08:13:58;;;;;;;5.43;1.67;;;-4.60;97.00;;;;;;6126967;23;20029;-79
2021/12/26 08:16:26;;;;;;;3.70;1.52;;;-4.60;96.70;;;;;;6151822;23;20084;-79
2021/12/26 08:18:52;;;;;;;5.95;1.70;;;-4.50;96.00;;;;;;6151817;23;20032;-79
2021/12/26 08:21:18;;;;;;;6.38;1.85;;;-4.50;96.20;;;;;;6102673;23;20491;-79
2021/12/26 08:23:44;;;;;;;5.93;1.77;;;-4.40;95.10;;;;;;6151738;23;20021;-80
2021/12/26 08:26:10;;;;;;;4.30;1.85;;;-4.40;94.80;;;;;;6127206;23;20465;-78
2021/12/26 08:28:37;;;;;;;5.20;1.80;;;-4.40;95.80;;;;;;6102352;23;20033;-78
2021/12/26 08:31:03;;;;;;;4.45;1.70;;;-4.40;95.70;;;;;;6102563;23;20022;-78
2021/12/26 08:33:29;;;;;;;6.25;2.40;;;-4.20;95.50;;;;;;6102249;23;20096;-78
2021/12/26 08:35:58;;;;;;;4.20;2.00;;;-4.30;96.00;;;;;;6127150;23;20072;-79
2021/12/26 08:38:32;;;;;;;6.25;2.40;;;-4.30;95.70;;;;;;6102798;23;20484;-79
2021/12/26 08:40:58;;;;;;;6.57;2.67;;;-4.30;96.10;;;;;;6150966;23;20021;-77
2021/12/26 08:43:24;;;;;;;7.25;2.25;;;-4.30;96.30;;;;;;6126587;23;20598;-79
2021/12/26 08:45:51;;;;;;;6.90;2.55;;;-4.20;95.80;;;;;;6152552;23;20049;-77
2021/12/26 08:48:17;;;;;;;6.18;2.28;;;-4.20;95.60;;;;;;6127838;23;20032;-78
2021/12/26 08:50:43;;;;;;;4.53;2.28;;;-4.10;95.60;;;;;;6136465;23;20021;-77
2021/12/26 08:53:10;;;;;;;4.70;2.15;;;-4.10;95.90;;;;;;6156917;23;20037;-78
2021/12/26 08:55:45;;;;;;;6.88;2.30;;;-4.00;96.30;;;;;;6157241;23;20029;-77
2021/12/26 08:58:12;;;;;;;5.65;2.20;;;-4.00;95.50;;;;;;6157458;23;20025;-78
2021/12/26 09:00:41;;;;;;;5.18;2.75;;;-3.80;95.70;;;;;;6183584;23;20021;-79
2021/12/26 09:03:08;;;;;;;5.22;2.30;;;-3.80;95.40;;;;;;6157789;23;20346;-78
2021/12/26 09:05:59;;;;;;;5.43;2.03;;;-3.70;94.90;;;;;;6133231;23;20017;-79
2021/12/26 09:08:24;;;;;;;6.70;2.28;;;-3.50;92.90;;;;;;6126447;23;20084;-79
2021/12/26 09:10:51;;;;;;;4.60;2.17;;;-3.40;94.30;;;;;;6151501;23;20413;-79
2021/12/26 09:13:17;;;;;;;4.30;1.65;;;-3.40;88.80;;;;;;6126591;23;20049;-79
2021/12/26 09:15:42;;;;;;;6.88;1.85;;;-3.20;92.90;;;;;;6126638;23;20026;-79
2021/12/26 09:18:09;;;;;;;4.13;2.47;;;-3.20;91.70;;;;;;6127080;23;20022;-79
2021/12/26 09:20:34;;;;;;;4.35;1.70;;;-3.00;91.90;;;;;;6128852;23;20052;-80
2021/12/26 09:23:00;;;;;;;4.70;2.15;;;-2.90;90.00;;;;;;6129910;23;20036;-80
2021/12/26 09:25:26;;;;;;;6.63;1.80;;;-2.90;91.00;;;;;;6148170;23;20076;-80
2021/12/26 09:27:53;;;;;;;7.60;2.03;;;-2.80;91.80;;;;;;6126687;23;20366;-80
2021/12/26 09:30:19;;;;;;;4.38;1.65;;;-2.70;90.60;;;;;;6126644;23;20025;-80
2021/12/26 09:32:45;;;;;;;4.78;2.30;;;-2.60;90.60;;;;;;6126695;23;20033;-80
2021/12/26 09:35:11;;;;;;;4.00;1.38;;;-2.60;89.70;;;;;;6126551;23;20319;-79
2021/12/26 09:37:37;;;;;;;5.80;1.70;;;-2.50;90.80;;;;;;6101794;23;20092;-80
2021/12/26 09:40:03;;;;;;;4.13;1.48;;;-2.40;88.70;;;;;;6101244;23;20017;-80
2021/12/26 09:42:29;;;;;;;4.22;1.42;;;-2.40;87.60;;;;;;6126344;23;20099;-80
2021/12/26 09:44:58;;;;;;;5.22;2.00;;;-2.20;83.50;;;;;;6125961;23;20068;-80
2021/12/26 09:47:24;;;;;;;7.47;1.83;;;-2.10;85.80;;;;;;6126386;23;20025;-80
2021/12/26 09:49:49;;;;;;;6.20;1.73;;;-1.80;85.10;;;;;;6126023;23;20025;-81
2021/12/26 09:52:17;;;;;;;5.80;1.73;;;-1.60;81.30;;;;;;6141769;23;20103;-81
2021/12/26 09:54:45;;;;;;;4.65;1.90;;;-1.40;78.80;;;;;;6157513;23;20017;-80
2021/12/26 09:57:11;;;;;;;4.18;1.80;;;-1.00;76.70;;;;;;6132592;23;20029;-81
2021/12/26 09:59:38;;;;;;;3.97;1.75;;;-0.90;73.10;;;;;;6156199;23;20389;-81
2021/12/26 10:02:13;;;;;;;7.38;1.88;;;-0.70;73.90;;;;;;6132159;23;20463;-79
2021/12/26 10:04:40;;;;;;;4.68;1.80;;;-0.60;71.60;;;;;;6156968;23;20142;-79
2021/12/26 10:07:09;;;;;;;4.80;1.70;;;-0.40;71.20;;;;;;6157176;23;20025;-81
2021/12/26 10:09:41;;;;;;;4.07;1.80;;;-0.10;70.20;;;;;;6156494;23;20052;-80
2021/12/26 10:12:08;;;;;;;5.57;2.40;;;0.10;67.40;;;;;;6155840;23;20028;-81
2021/12/26 10:14:38;;;;;;;4.13;1.98;;;0.10;65.60;;;;;;6157477;23;20025;-80
2021/12/26 10:17:17;;;;;;;5.78;2.03;;;0.30;65.30;;;;;;6132549;23;20017;-80
2021/12/26 10:19:46;;;;;;;4.57;1.80;;;0.40;64.10;;;;;;6157075;23;20078;-80
2021/12/26 10:22:15;;;;;;;5.43;1.90;;;0.50;64.40;;;;;;6156948;23;20028;-80
2021/12/26 10:24:43;;;;;;;4.45;2.17;;;1.20;62.90;;;;;;6157258;23;20024;-80
2021/12/26 10:27:13;;;;;;;5.70;2.00;;;1.90;60.10;;;;;;6157249;23;20086;-80
2021/12/26 10:29:41;;;;;;;5.18;2.33;;;2.30;57.70;;;;;;6132697;23;20463;-81
2021/12/26 10:32:37;;;;;;;5.05;1.75;;;2.40;57.60;;;;;;6180866;23;20056;-81
2021/12/26 10:35:33;;;;;;;5.55;1.88;;;2.20;56.30;;;;;;6156952;23;20017;-79
2021/12/26 10:38:02;;;;;;;5.13;2.60;;;2.80;56.60;;;;;;6044924;23;20129;-80
2021/12/26 10:40:33;;;;;;;4.70;1.95;;;2.40;54.20;;;;;;6069983;23;20018;-80
2021/12/26 10:43:01;;;;;;;4.57;2.33;;;1.70;56.40;;;;;;6073853;23;20541;-80
2021/12/26 10:45:30;;;;;;;6.35;2.53;;;1.50;60.40;;;;;;6068503;23;20029;-80
2021/12/26 10:47:59;;;;;;;5.72;2.22;;;1.80;61.30;;;;;;6067763;23;20126;-79
2021/12/26 10:50:30;;;;;;;5.43;1.95;;;1.70;59.10;;;;;;6044753;23;20023;-80
2021/12/26 10:53:08;;;;;;;5.60;2.13;;;1.40;60.80;;;;;;6068115;23;20541;-80
2021/12/26 10:55:51;;;;;;;9.63;2.08;;;1.00;62.90;;;;;;6072480;23;20057;-79
2021/12/26 10:58:20;;;;;;;5.47;2.30;;;0.90;64.20;;;;;;6068866;23;20085;-80
2021/12/26 11:00:51;;;;;;;4.85;2.70;;;1.30;64.00;;;;;;6039756;23;20023;-80
2021/12/26 11:03:23;;;;;;;7.05;2.30;;;1.50;62.70;;;;;;6040788;23;20450;-80
2021/12/26 11:05:52;;;;;;;5.05;1.90;;;1.80;62.30;;;;;;6040781;23;20023;-80
2021/12/26 11:08:29;;;;;;;4.28;2.45;;;2.00;61.20;;;;;;6061518;23;20018;-80
2021/12/26 11:11:26;;;;;;;6.72;2.58;;;2.20;61.00;;;;;;6104742;23;20080;-80
2021/12/26 11:14:13;;;;;;;6.03;2.95;;;2.10;58.80;;;;;;6133340;23;20107;-81
2021/12/26 11:16:41;;;;;;;7.07;2.50;;;2.40;58.80;;;;;;6104483;23;20025;-82
2021/12/26 11:19:07;;;;;;;6.68;2.70;;;2.40;57.60;;;;;;6129095;23;20026;-80
2021/12/26 11:21:35;;;;;;;4.88;2.17;;;2.50;57.30;;;;;;6128652;23;20025;-83
2021/12/26 11:24:01;;;;;;;5.55;2.67;;;2.80;56.60;;;;;;6128963;23;20021;-81
2021/12/26 11:26:27;;;;;;;5.85;2.25;;;2.90;55.90;;;;;;6104624;23;20048;-81
2021/12/26 11:28:53;;;;;;;7.35;2.90;;;3.20;57.10;;;;;;6128803;23;20033;-81
2021/12/26 11:31:22;;;;;;;3.58;2.00;;;3.60;55.60;;;;;;6128745;23;20057;-80
2021/12/26 11:33:54;;;;;;;5.88;2.22;;;4.00;54.60;;;;;;6128014;23;20494;-81
2021/12/26 11:36:20;;;;;;;7.38;2.63;;;4.80;53.70;;;;;;6103282;23;20373;-81
2021/12/26 11:38:57;;;;;;;7.03;2.95;;;5.30;50.30;;;;;;6103339;23;20056;-81
2021/12/26 11:41:36;;;;;;;5.18;2.50;;;5.40;47.90;;;;;;6104711;23;20029;-81
2021/12/26 11:44:19;;;;;;;5.95;2.60;;;5.90;48.80;;;;;;6128702;23;20022;-81
2021/12/26 11:46:58;;;;;;;7.35;2.60;;;6.00;48.20;;;;;;6104128;23;20374;-81
2021/12/26 11:50:00;;;;;;;5.25;2.40;;;6.50;47.50;;;;;;6155134;23;20044;-82
2021/12/26 11:52:45;;;;;;;6.68;2.10;;;6.30;45.90;;;;;;6104359;23;20041;-81
2021/12/26 11:55:54;;;;;;;12.00;2.80;;;6.20;45.60;;;;;;6128164;23;20025;-80
2021/12/26 11:58:38;;;;;;;4.93;2.17;;;5.50;44.90;;;;;;6128130;23;20025;-81
2021/12/26 12:01:06;;;;;;;5.13;2.50;;;5.20;47.70;;;;;;6152968;23;20021;-81
2021/12/26 12:03:35;;;;;;;9.27;3.03;;;4.90;47.70;;;;;;6157692;23;20116;-81
2021/12/26 12:06:01;;;;;;;4.55;2.13;;;4.80;49.10;;;;;;6158162;23;20414;-81
2021/12/26 12:08:34;;;;;;;5.57;2.42;;;4.50;49.40;;;;;;6157474;23;20028;-81
2021/12/26 12:11:05;;;;;;;4.60;2.25;;;4.30;50.20;;;;;;6133866;23;20025;-82
2021/12/26 12:13:49;;;;;;;5.03;2.38;;;4.60;50.90;;;;;;6184791;23;20027;-82
2021/12/26 12:16:24;;;;;;;5.50;2.40;;;5.00;50.60;;;;;;6133628;23;20567;-82
2021/12/26 12:18:50;;;;;;;;;;;5.20;50.00;;;;;;6158835;23;20040;-82
2021/12/26 12:21:18;;;;;;;4.35;2.15;;;5.90;47.40;;;;;;6159362;23;20272;-82
2021/12/26 12:24:10;;;;;;;5.68;2.67;;;6.60;48.50;;;;;;6160219;23;20090;-82
2021/12/26 12:26:41;;;;;;;5.13;2.42;;;7.30;44.90;;;;;;6158751;23;20111;-82
2021/12/26 12:29:09;;;;;;;6.75;2.45;;;8.30;46.70;;;;;;6139852;23;20032;-82
2021/12/26 12:31:35;;;;;;;7.82;2.50;;;8.80;44.80;;;;;;6160430;23;20020;-82
2021/12/26 12:34:08;;;;;;;4.78;1.83;;;9.10;43.80;;;;;;6158247;23;20021;-82
2021/12/26 12:36:38;;;;;;;6.30;2.50;;;8.80;41.90;;;;;;6157786;23;20024;-82
2021/12/26 12:39:22;;;;;;;4.57;2.30;;;9.30;43.30;;;;;;6157576;23;20028;-81
2021/12/26 12:41:54;;;;;;;5.93;2.97;;;9.50;42.20;;;;;;6132303;23;20032;-81
2021/12/26 12:44:23;;;;;;;5.72;2.95;;;10.20;41.90;;;;;;6158258;23;20361;-82
2021/12/26 12:46:54;;;;;;;5.68;2.30;;;10.20;41.50;;;;;;6157819;23;20087;-81
2021/12/26 12:49:40;;;;;;;6.65;3.72;;;10.10;40.40;;;;;;6157394;23;20025;-82
2021/12/26 12:52:06;;;;;;;6.70;2.80;;;10.10;40.60;;;;;;6132409;23;20079;-82
2021/12/26 12:54:32;;;;;;;4.85;2.15;;;10.50;42.20;;;;;;6184134;23;20457;-83
2021/12/26 12:57:25;;;;;;;6.75;2.78;;;10.40;40.90;;;;;;6156744;23;20064;-82
2021/12/26 12:59:54;;;;;;;5.40;2.83;;;10.20;40.50;;;;;;6066201;23;20029;-81
2021/12/26 13:02:30;;;;;;;7.13;2.58;;;10.30;41.10;;;;;;6092328;23;20489;-83
2021/12/26 13:04:56;;;;;;;4.43;2.13;;;10.20;40.00;;;;;;6068439;23;20033;-82
2021/12/26 13:07:24;;;;;;;5.20;2.40;;;10.00;41.10;;;;;;6092733;23;20033;-84
2021/12/26 13:09:54;;;;;;;5.72;2.33;;;9.40;41.40;;;;;;6092104;23;20051;-82